sensor_id;sensor_type;location;lat;lon;timestamp;P1;durP1;ratioP1;P2;durP2;ratioP2
9900;SDS011;4989;48.772;9.154;2023-05-07T00:02:40;51.97;;;47.30;;
9900;SDS011;4989;48.772;9.154;2023-05-07T00:07:43;46.17;;;41.93;;
9900;SDS011;4989;48.772;9.154;2023-05-07T00:12:45;78.80;;;69.57;;
9900;SDS011;4989;48.772;9.154;2023-05-07T00:17:48;154.90;;;140.97;;
9900;SDS011;4989;48.772;9.154;2023-05-07T00:22:50;182.47;;;165.07;;
9900;SDS011;4989;48.772;9.154;2023-05-07T00:27:52;192.97;;;173.73;;
9900;SDS011;4989;48.772;9.154;2023-05-07T00:32:54;187.83;;;161.73;;
9900;SDS011;4989;48.772;9.154;2023-05-07T00:37:57;184.27;;;163.30;;
9900;SDS011;4989;48.772;9.154;2023-05-07T00:42:59;176.40;;;157.63;;
9900;SDS011;4989;48.772;9.154;2023-05-07T00:48:01;234.37;;;171.13;;
9900;SDS011;4989;48.772;9.154;2023-05-07T00:53:05;125.70;;;68.47;;
9900;SDS011;4989;48.772;9.154;2023-05-07T00:58:09;185.07;;;67.73;;
9900;SDS011;4989;48.772;9.154;2023-05-07T01:03:11;153.10;;;58.20;;
9900;SDS011;4989;48.772;9.154;2023-05-07T01:08:14;142.73;;;52.87;;
9900;SDS011;4989;48.772;9.154;2023-05-07T01:13:18;223.57;;;127.50;;
9900;SDS011;4989;48.772;9.154;2023-05-07T01:18:22;223.20;;;140.63;;
9900;SDS011;4989;48.772;9.154;2023-05-07T01:23:25;256.60;;;160.37;;
9900;SDS011;4989;48.772;9.154;2023-05-07T01:28:29;210.43;;;144.30;;
9900;SDS011;4989;48.772;9.154;2023-05-07T01:33:34;270.63;;;128.70;;
9900;SDS011;4989;48.772;9.154;2023-05-07T01:38:39;234.70;;;83.43;;
9900;SDS011;4989;48.772;9.154;2023-05-07T01:43:44;198.20;;;64.30;;
9900;SDS011;4989;48.772;9.154;2023-05-07T01:48:48;144.63;;;121.07;;
9900;SDS011;4989;48.772;9.154;2023-05-07T01:53:52;186.97;;;147.90;;
9900;SDS011;4989;48.772;9.154;2023-05-07T01:58:55;281.70;;;158.47;;
9900;SDS011;4989;48.772;9.154;2023-05-07T02:03:57;275.97;;;157.47;;
9900;SDS011;4989;48.772;9.154;2023-05-07T02:09:02;292.20;;;165.13;;
9900;SDS011;4989;48.772;9.154;2023-05-07T02:14:05;253.40;;;97.53;;
9900;SDS011;4989;48.772;9.154;2023-05-07T02:19:07;257.40;;;78.40;;
9900;SDS011;4989;48.772;9.154;2023-05-07T02:24:10;232.03;;;75.70;;
9900;SDS011;4989;48.772;9.154;2023-05-07T02:29:12;260.23;;;82.10;;
9900;SDS011;4989;48.772;9.154;2023-05-07T02:34:15;285.10;;;93.00;;
9900;SDS011;4989;48.772;9.154;2023-05-07T02:39:18;346.40;;;179.20;;
9900;SDS011;4989;48.772;9.154;2023-05-07T02:44:21;365.33;;;202.77;;
9900;SDS011;4989;48.772;9.154;2023-05-07T02:49:25;369.10;;;198.83;;
9900;SDS011;4989;48.772;9.154;2023-05-07T02:54:27;368.77;;;207.07;;
9900;SDS011;4989;48.772;9.154;2023-05-07T02:59:30;265.43;;;156.90;;
9900;SDS011;4989;48.772;9.154;2023-05-07T03:04:32;232.87;;;154.83;;
9900;SDS011;4989;48.772;9.154;2023-05-07T03:09:35;129.43;;;65.40;;
9900;SDS011;4989;48.772;9.154;2023-05-07T03:14:37;262.03;;;80.70;;
9900;SDS011;4989;48.772;9.154;2023-05-07T03:19:39;311.43;;;93.90;;
9900;SDS011;4989;48.772;9.154;2023-05-07T03:24:41;313.53;;;94.37;;
9900;SDS011;4989;48.772;9.154;2023-05-07T03:29:44;316.57;;;97.27;;
9900;SDS011;4989;48.772;9.154;2023-05-07T03:34:46;320.27;;;117.47;;
9900;SDS011;4989;48.772;9.154;2023-05-07T03:39:49;360.93;;;182.93;;
9900;SDS011;4989;48.772;9.154;2023-05-07T03:44:52;366.13;;;198.57;;
9900;SDS011;4989;48.772;9.154;2023-05-07T03:49:55;349.63;;;194.17;;
9900;SDS011;4989;48.772;9.154;2023-05-07T03:54:58;355.43;;;191.90;;
9900;SDS011;4989;48.772;9.154;2023-05-07T04:00:01;366.83;;;201.00;;
9900;SDS011;4989;48.772;9.154;2023-05-07T04:05:09;320.43;;;106.50;;
9900;SDS011;4989;48.772;9.154;2023-05-07T04:10:13;245.20;;;66.30;;
9900;SDS011;4989;48.772;9.154;2023-05-07T04:15:19;321.30;;;168.60;;
9900;SDS011;4989;48.772;9.154;2023-05-07T04:20:21;353.17;;;190.43;;
9900;SDS011;4989;48.772;9.154;2023-05-07T04:25:30;355.07;;;189.53;;
9900;SDS011;4989;48.772;9.154;2023-05-07T04:30:41;307.90;;;95.37;;
9900;SDS011;4989;48.772;9.154;2023-05-07T04:35:45;322.20;;;108.63;;
9900;SDS011;4989;48.772;9.154;2023-05-07T04:40:48;331.60;;;157.00;;
9900;SDS011;4989;48.772;9.154;2023-05-07T04:45:55;344.23;;;194.73;;
9900;SDS011;4989;48.772;9.154;2023-05-07T04:51:00;286.10;;;175.73;;
9900;SDS011;4989;48.772;9.154;2023-05-07T04:56:02;344.30;;;178.67;;
9900;SDS011;4989;48.772;9.154;2023-05-07T05:01:11;316.83;;;102.27;;
9900;SDS011;4989;48.772;9.154;2023-05-07T05:06:15;317.87;;;102.87;;
9900;SDS011;4989;48.772;9.154;2023-05-07T05:11:17;254.87;;;121.50;;
9900;SDS011;4989;48.772;9.154;2023-05-07T05:16:19;268.23;;;161.20;;
9900;SDS011;4989;48.772;9.154;2023-05-07T05:21:22;310.60;;;174.77;;
9900;SDS011;4989;48.772;9.154;2023-05-07T05:26:29;341.77;;;182.30;;
9900;SDS011;4989;48.772;9.154;2023-05-07T05:31:32;333.10;;;173.47;;
9900;SDS011;4989;48.772;9.154;2023-05-07T05:36:35;317.37;;;115.37;;
9900;SDS011;4989;48.772;9.154;2023-05-07T05:41:38;325.03;;;109.83;;
9900;SDS011;4989;48.772;9.154;2023-05-07T05:46:42;321.93;;;108.13;;
9900;SDS011;4989;48.772;9.154;2023-05-07T05:51:44;320.10;;;109.17;;
9900;SDS011;4989;48.772;9.154;2023-05-07T05:56:48;356.63;;;176.13;;
9900;SDS011;4989;48.772;9.154;2023-05-07T06:01:51;380.63;;;216.97;;
9900;SDS011;4989;48.772;9.154;2023-05-07T06:06:53;386.10;;;226.97;;
9900;SDS011;4989;48.772;9.154;2023-05-07T06:11:57;388.87;;;231.20;;
9900;SDS011;4989;48.772;9.154;2023-05-07T06:17:03;359.57;;;185.70;;
9900;SDS011;4989;48.772;9.154;2023-05-07T06:22:06;326.53;;;116.87;;
9900;SDS011;4989;48.772;9.154;2023-05-07T06:27:09;322.57;;;112.47;;
9900;SDS011;4989;48.772;9.154;2023-05-07T06:32:13;320.53;;;114.57;;
9900;SDS011;4989;48.772;9.154;2023-05-07T06:37:17;354.57;;;174.57;;
9900;SDS011;4989;48.772;9.154;2023-05-07T06:42:29;351.70;;;196.53;;
9900;SDS011;4989;48.772;9.154;2023-05-07T06:47:34;311.03;;;132.13;;
9900;SDS011;4989;48.772;9.154;2023-05-07T06:52:36;311.23;;;109.67;;
9900;SDS011;4989;48.772;9.154;2023-05-07T06:57:40;135.70;;;53.20;;
9900;SDS011;4989;48.772;9.154;2023-05-07T07:02:42;236.50;;;72.03;;
9900;SDS011;4989;48.772;9.154;2023-05-07T07:07:47;250.70;;;103.43;;
9900;SDS011;4989;48.772;9.154;2023-05-07T07:12:55;293.57;;;168.73;;
9900;SDS011;4989;48.772;9.154;2023-05-07T07:17:57;265.90;;;158.90;;
9900;SDS011;4989;48.772;9.154;2023-05-07T07:22:59;272.93;;;182.33;;
9900;SDS011;4989;48.772;9.154;2023-05-07T07:28:02;274.50;;;185.90;;
9900;SDS011;4989;48.772;9.154;2023-05-07T07:33:04;302.20;;;137.53;;
9900;SDS011;4989;48.772;9.154;2023-05-07T07:38:10;259.77;;;97.43;;
9900;SDS011;4989;48.772;9.154;2023-05-07T07:49:41;297.27;;;115.40;;
9900;SDS011;4989;48.772;9.154;2023-05-07T07:54:44;303.37;;;126.33;;
9900;SDS011;4989;48.772;9.154;2023-05-07T07:59:47;244.03;;;129.67;;
9900;SDS011;4989;48.772;9.154;2023-05-07T08:04:53;368.90;;;234.03;;
9900;SDS011;4989;48.772;9.154;2023-05-07T08:09:55;365.13;;;238.13;;
9900;SDS011;4989;48.772;9.154;2023-05-07T08:14:58;368.57;;;232.87;;
9900;SDS011;4989;48.772;9.154;2023-05-07T08:20:01;349.73;;;207.67;;
9900;SDS011;4989;48.772;9.154;2023-05-07T08:25:04;327.77;;;169.90;;
9900;SDS011;4989;48.772;9.154;2023-05-07T08:30:07;131.57;;;67.30;;
9900;SDS011;4989;48.772;9.154;2023-05-07T08:35:11;137.23;;;77.63;;
9900;SDS011;4989;48.772;9.154;2023-05-07T08:40:13;153.17;;;71.13;;
9900;SDS011;4989;48.772;9.154;2023-05-07T08:45:16;142.13;;;77.00;;
9900;SDS011;4989;48.772;9.154;2023-05-07T08:50:25;229.40;;;204.47;;
9900;SDS011;4989;48.772;9.154;2023-05-07T08:55:28;270.23;;;194.20;;
9900;SDS011;4989;48.772;9.154;2023-05-07T09:00:32;302.07;;;186.10;;
9900;SDS011;4989;48.772;9.154;2023-05-07T09:05:35;263.07;;;128.70;;
9900;SDS011;4989;48.772;9.154;2023-05-07T09:10:41;277.10;;;139.43;;
9900;SDS011;4989;48.772;9.154;2023-05-07T09:15:43;279.47;;;129.93;;
9900;SDS011;4989;48.772;9.154;2023-05-07T09:20:47;243.47;;;105.63;;
9900;SDS011;4989;48.772;9.154;2023-05-07T09:25:53;231.83;;;176.73;;
9900;SDS011;4989;48.772;9.154;2023-05-07T09:31:06;281.77;;;136.33;;
9900;SDS011;4989;48.772;9.154;2023-05-07T09:36:10;281.03;;;136.97;;
9900;SDS011;4989;48.772;9.154;2023-05-07T09:41:14;247.40;;;105.43;;
9900;SDS011;4989;48.772;9.154;2023-05-07T09:46:30;307.47;;;221.30;;
9900;SDS011;4989;48.772;9.154;2023-05-07T09:51:41;157.10;;;73.97;;
9900;SDS011;4989;48.772;9.154;2023-05-07T09:56:52;191.20;;;169.90;;
9900;SDS011;4989;48.772;9.154;2023-05-07T10:01:59;245.10;;;162.63;;
9900;SDS011;4989;48.772;9.154;2023-05-07T10:07:08;165.53;;;74.17;;
9900;SDS011;4989;48.772;9.154;2023-05-07T10:12:11;220.90;;;103.73;;
9900;SDS011;4989;48.772;9.154;2023-05-07T10:17:15;137.20;;;69.53;;
9900;SDS011;4989;48.772;9.154;2023-05-07T10:22:20;229.10;;;182.23;;
9900;SDS011;4989;48.772;9.154;2023-05-07T10:27:24;275.83;;;194.27;;
9900;SDS011;4989;48.772;9.154;2023-05-07T10:32:52;296.13;;;197.07;;
9900;SDS011;4989;48.772;9.154;2023-05-07T10:38:02;233.67;;;175.53;;
9900;SDS011;4989;48.772;9.154;2023-05-07T10:43:10;141.60;;;74.13;;
9900;SDS011;4989;48.772;9.154;2023-05-07T10:48:17;135.23;;;86.33;;
9900;SDS011;4989;48.772;9.154;2023-05-07T10:53:28;227.47;;;163.17;;
9900;SDS011;4989;48.772;9.154;2023-05-07T10:58:50;220.67;;;157.33;;
9900;SDS011;4989;48.772;9.154;2023-05-07T11:04:13;189.27;;;168.83;;
9900;SDS011;4989;48.772;9.154;2023-05-07T11:15:34;246.93;;;177.53;;
9900;SDS011;4989;48.772;9.154;2023-05-07T11:21:05;261.27;;;146.07;;
9900;SDS011;4989;48.772;9.154;2023-05-07T11:26:16;269.80;;;136.33;;
9900;SDS011;4989;48.772;9.154;2023-05-07T11:31:20;369.43;;;260.97;;
9900;SDS011;4989;48.772;9.154;2023-05-07T11:36:25;357.83;;;253.93;;
9900;SDS011;4989;48.772;9.154;2023-05-07T11:41:36;338.60;;;191.03;;
9900;SDS011;4989;48.772;9.154;2023-05-07T11:46:42;328.97;;;155.17;;
9900;SDS011;4989;48.772;9.154;2023-05-07T11:51:46;332.50;;;175.13;;
9900;SDS011;4989;48.772;9.154;2023-05-07T11:56:49;343.13;;;203.23;;
9900;SDS011;4989;48.772;9.154;2023-05-07T12:01:51;361.07;;;238.97;;
9900;SDS011;4989;48.772;9.154;2023-05-07T12:06:53;358.80;;;233.40;;
9900;SDS011;4989;48.772;9.154;2023-05-07T12:11:57;330.67;;;204.13;;
9900;SDS011;4989;48.772;9.154;2023-05-07T12:17:07;157.13;;;65.03;;
9900;SDS011;4989;48.772;9.154;2023-05-07T12:22:11;71.37;;;60.63;;
9900;SDS011;4989;48.772;9.154;2023-05-07T12:27:15;81.47;;;64.40;;
9900;SDS011;4989;48.772;9.154;2023-05-07T12:32:20;159.27;;;144.20;;
9900;SDS011;4989;48.772;9.154;2023-05-07T12:37:24;195.67;;;177.53;;
9900;SDS011;4989;48.772;9.154;2023-05-07T12:42:32;155.63;;;145.13;;
9900;SDS011;4989;48.772;9.154;2023-05-07T12:47:38;93.00;;;64.10;;
9900;SDS011;4989;48.772;9.154;2023-05-07T12:52:40;121.07;;;71.20;;
9900;SDS011;4989;48.772;9.154;2023-05-07T12:57:48;113.40;;;103.00;;
9900;SDS011;4989;48.772;9.154;2023-05-07T13:02:54;191.97;;;173.93;;
9900;SDS011;4989;48.772;9.154;2023-05-07T13:07:56;187.90;;;171.20;;
9900;SDS011;4989;48.772;9.154;2023-05-07T13:12:59;188.13;;;168.97;;
9900;SDS011;4989;48.772;9.154;2023-05-07T13:18:01;110.00;;;100.30;;
9900;SDS011;4989;48.772;9.154;2023-05-07T13:23:04;154.90;;;121.13;;
9900;SDS011;4989;48.772;9.154;2023-05-07T13:28:06;47.00;;;42.77;;
9900;SDS011;4989;48.772;9.154;2023-05-07T13:33:11;105.17;;;56.60;;
9900;SDS011;4989;48.772;9.154;2023-05-07T13:38:14;110.80;;;58.97;;
9900;SDS011;4989;48.772;9.154;2023-05-07T13:43:17;134.37;;;77.40;;
9900;SDS011;4989;48.772;9.154;2023-05-07T13:48:20;143.27;;;124.60;;
9900;SDS011;4989;48.772;9.154;2023-05-07T13:53:22;181.87;;;156.47;;
9900;SDS011;4989;48.772;9.154;2023-05-07T13:58:25;176.70;;;157.37;;
9900;SDS011;4989;48.772;9.154;2023-05-07T14:03:27;183.87;;;167.07;;
9900;SDS011;4989;48.772;9.154;2023-05-07T14:08:29;137.13;;;125.00;;
9900;SDS011;4989;48.772;9.154;2023-05-07T14:13:32;269.27;;;191.73;;
9900;SDS011;4989;48.772;9.154;2023-05-07T14:18:35;132.93;;;70.63;;
9900;SDS011;4989;48.772;9.154;2023-05-07T14:23:40;165.13;;;59.70;;
9900;SDS011;4989;48.772;9.154;2023-05-07T14:28:42;151.43;;;63.07;;
9900;SDS011;4989;48.772;9.154;2023-05-07T14:33:48;156.47;;;84.33;;
9900;SDS011;4989;48.772;9.154;2023-05-07T14:38:52;182.57;;;143.83;;
9900;SDS011;4989;48.772;9.154;2023-05-07T14:44:00;179.50;;;154.57;;
9900;SDS011;4989;48.772;9.154;2023-05-07T14:49:05;169.33;;;78.87;;
9900;SDS011;4989;48.772;9.154;2023-05-07T14:54:08;151.07;;;58.67;;
9900;SDS011;4989;48.772;9.154;2023-05-07T14:59:10;163.13;;;60.77;;
9900;SDS011;4989;48.772;9.154;2023-05-07T15:04:13;146.37;;;61.23;;
9900;SDS011;4989;48.772;9.154;2023-05-07T15:09:17;118.33;;;61.27;;
9900;SDS011;4989;48.772;9.154;2023-05-07T15:14:19;125.20;;;107.73;;
9900;SDS011;4989;48.772;9.154;2023-05-07T15:19:23;180.77;;;163.53;;
9900;SDS011;4989;48.772;9.154;2023-05-07T15:24:30;178.97;;;158.30;;
9900;SDS011;4989;48.772;9.154;2023-05-07T15:29:33;191.37;;;171.27;;
9900;SDS011;4989;48.772;9.154;2023-05-07T15:34:36;113.40;;;64.67;;
9900;SDS011;4989;48.772;9.154;2023-05-07T15:39:38;102.60;;;54.20;;
9900;SDS011;4989;48.772;9.154;2023-05-07T15:44:41;97.03;;;53.17;;
9900;SDS011;4989;48.772;9.154;2023-05-07T15:49:43;78.87;;;52.93;;
9900;SDS011;4989;48.772;9.154;2023-05-07T15:54:45;79.27;;;50.00;;
9900;SDS011;4989;48.772;9.154;2023-05-07T15:59:49;103.60;;;94.73;;
9900;SDS011;4989;48.772;9.154;2023-05-07T16:04:51;146.27;;;134.13;;
9900;SDS011;4989;48.772;9.154;2023-05-07T16:09:54;151.73;;;140.03;;
9900;SDS011;4989;48.772;9.154;2023-05-07T16:14:56;160.23;;;147.10;;
9900;SDS011;4989;48.772;9.154;2023-05-07T16:19:58;169.87;;;155.87;;
9900;SDS011;4989;48.772;9.154;2023-05-07T16:25:00;164.43;;;151.13;;
9900;SDS011;4989;48.772;9.154;2023-05-07T16:30:03;124.67;;;115.87;;
9900;SDS011;4989;48.772;9.154;2023-05-07T16:35:06;87.40;;;67.17;;
9900;SDS011;4989;48.772;9.154;2023-05-07T16:40:09;73.70;;;54.83;;
9900;SDS011;4989;48.772;9.154;2023-05-07T16:45:11;84.83;;;53.23;;
9900;SDS011;4989;48.772;9.154;2023-05-07T16:50:14;79.63;;;55.10;;
9900;SDS011;4989;48.772;9.154;2023-05-07T16:55:16;108.17;;;62.43;;
9900;SDS011;4989;48.772;9.154;2023-05-07T17:00:19;139.43;;;111.63;;
9900;SDS011;4989;48.772;9.154;2023-05-07T17:05:22;160.17;;;144.80;;
9900;SDS011;4989;48.772;9.154;2023-05-07T17:10:24;182.40;;;164.93;;
9900;SDS011;4989;48.772;9.154;2023-05-07T17:15:27;175.50;;;156.97;;
9900;SDS011;4989;48.772;9.154;2023-05-07T17:20:29;178.47;;;158.73;;
9900;SDS011;4989;48.772;9.154;2023-05-07T17:25:33;183.70;;;154.03;;
9900;SDS011;4989;48.772;9.154;2023-05-07T17:30:37;145.87;;;72.00;;
9900;SDS011;4989;48.772;9.154;2023-05-07T17:35:39;125.80;;;58.77;;
9900;SDS011;4989;48.772;9.154;2023-05-07T17:40:41;137.43;;;59.90;;
9900;SDS011;4989;48.772;9.154;2023-05-07T17:45:43;140.27;;;58.07;;
9900;SDS011;4989;48.772;9.154;2023-05-07T17:50:46;138.63;;;60.43;;
9900;SDS011;4989;48.772;9.154;2023-05-07T17:55:48;152.03;;;86.83;;
9900;SDS011;4989;48.772;9.154;2023-05-07T18:00:52;160.13;;;130.70;;
9900;SDS011;4989;48.772;9.154;2023-05-07T18:05:55;202.10;;;140.27;;
9900;SDS011;4989;48.772;9.154;2023-05-07T18:10:58;109.27;;;101.67;;
9900;SDS011;4989;48.772;9.154;2023-05-07T18:16:00;175.70;;;158.37;;
9900;SDS011;4989;48.772;9.154;2023-05-07T18:21:02;164.07;;;147.33;;
9900;SDS011;4989;48.772;9.154;2023-05-07T18:26:06;122.53;;;95.33;;
9900;SDS011;4989;48.772;9.154;2023-05-07T18:31:09;112.20;;;55.37;;
9900;SDS011;4989;48.772;9.154;2023-05-07T18:36:11;101.70;;;56.00;;
9900;SDS011;4989;48.772;9.154;2023-05-07T18:41:13;97.57;;;60.23;;
9900;SDS011;4989;48.772;9.154;2023-05-07T18:46:15;100.53;;;55.40;;
9900;SDS011;4989;48.772;9.154;2023-05-07T18:51:18;114.47;;;85.20;;
9900;SDS011;4989;48.772;9.154;2023-05-07T18:56:21;146.50;;;131.17;;
9900;SDS011;4989;48.772;9.154;2023-05-07T19:01:23;171.90;;;154.70;;
9900;SDS011;4989;48.772;9.154;2023-05-07T19:06:25;172.77;;;154.43;;
9900;SDS011;4989;48.772;9.154;2023-05-07T19:11:31;166.93;;;150.87;;
9900;SDS011;4989;48.772;9.154;2023-05-07T19:16:33;175.10;;;158.10;;
9900;SDS011;4989;48.772;9.154;2023-05-07T19:21:36;128.60;;;90.13;;
9900;SDS011;4989;48.772;9.154;2023-05-07T19:26:38;99.33;;;57.20;;
9900;SDS011;4989;48.772;9.154;2023-05-07T19:31:41;99.97;;;54.63;;
9900;SDS011;4989;48.772;9.154;2023-05-07T19:36:43;82.97;;;53.50;;
9900;SDS011;4989;48.772;9.154;2023-05-07T19:41:46;106.33;;;56.67;;
9900;SDS011;4989;48.772;9.154;2023-05-07T19:46:48;117.73;;;82.63;;
9900;SDS011;4989;48.772;9.154;2023-05-07T19:51:51;153.43;;;135.37;;
9900;SDS011;4989;48.772;9.154;2023-05-07T19:56:54;173.90;;;155.30;;
9900;SDS011;4989;48.772;9.154;2023-05-07T20:02:00;183.03;;;164.30;;
9900;SDS011;4989;48.772;9.154;2023-05-07T20:07:02;170.33;;;152.73;;
9900;SDS011;4989;48.772;9.154;2023-05-07T20:12:06;97.50;;;76.73;;
9900;SDS011;4989;48.772;9.154;2023-05-07T20:17:08;102.10;;;54.37;;
9900;SDS011;4989;48.772;9.154;2023-05-07T20:22:11;104.40;;;53.27;;
9900;SDS011;4989;48.772;9.154;2023-05-07T20:27:13;101.67;;;55.40;;
9900;SDS011;4989;48.772;9.154;2023-05-07T20:32:16;113.27;;;54.80;;
9900;SDS011;4989;48.772;9.154;2023-05-07T20:37:19;144.70;;;93.40;;
9900;SDS011;4989;48.772;9.154;2023-05-07T20:42:21;156.17;;;139.90;;
9900;SDS011;4989;48.772;9.154;2023-05-07T20:47:25;163.47;;;146.17;;
9900;SDS011;4989;48.772;9.154;2023-05-07T20:52:28;162.30;;;142.70;;
9900;SDS011;4989;48.772;9.154;2023-05-07T20:57:30;178.30;;;145.60;;
9900;SDS011;4989;48.772;9.154;2023-05-07T21:02:32;171.40;;;143.70;;
9900;SDS011;4989;48.772;9.154;2023-05-07T21:07:35;180.30;;;117.80;;
9900;SDS011;4989;48.772;9.154;2023-05-07T21:12:37;164.93;;;71.13;;
9900;SDS011;4989;48.772;9.154;2023-05-07T21:17:40;161.07;;;57.07;;
9900;SDS011;4989;48.772;9.154;2023-05-07T21:22:42;85.70;;;54.33;;
9900;SDS011;4989;48.772;9.154;2023-05-07T21:27:44;111.70;;;56.33;;
9900;SDS011;4989;48.772;9.154;2023-05-07T21:32:47;131.07;;;58.93;;
9900;SDS011;4989;48.772;9.154;2023-05-07T21:37:50;143.43;;;106.53;;
9900;SDS011;4989;48.772;9.154;2023-05-07T21:42:52;148.27;;;130.37;;
9900;SDS011;4989;48.772;9.154;2023-05-07T21:47:54;171.73;;;147.67;;
9900;SDS011;4989;48.772;9.154;2023-05-07T21:52:57;157.97;;;136.97;;
9900;SDS011;4989;48.772;9.154;2023-05-07T21:57:59;159.33;;;142.03;;
9900;SDS011;4989;48.772;9.154;2023-05-07T22:03:06;130.97;;;78.83;;
9900;SDS011;4989;48.772;9.154;2023-05-07T22:08:08;122.03;;;53.13;;
9900;SDS011;4989;48.772;9.154;2023-05-07T22:13:10;137.77;;;53.30;;
9900;SDS011;4989;48.772;9.154;2023-05-07T22:18:13;150.70;;;55.20;;
9900;SDS011;4989;48.772;9.154;2023-05-07T22:23:15;160.30;;;57.33;;
9900;SDS011;4989;48.772;9.154;2023-05-07T22:28:18;154.50;;;58.23;;
9900;SDS011;4989;48.772;9.154;2023-05-07T22:33:20;160.10;;;100.87;;
9900;SDS011;4989;48.772;9.154;2023-05-07T22:38:22;188.47;;;125.07;;
9900;SDS011;4989;48.772;9.154;2023-05-07T22:43:24;191.50;;;143.03;;
9900;SDS011;4989;48.772;9.154;2023-05-07T22:48:27;151.73;;;120.17;;
9900;SDS011;4989;48.772;9.154;2023-05-07T22:53:30;240.97;;;133.83;;
9900;SDS011;4989;48.772;9.154;2023-05-07T22:58:32;257.73;;;144.30;;
9900;SDS011;4989;48.772;9.154;2023-05-07T23:03:34;199.27;;;125.47;;
9900;SDS011;4989;48.772;9.154;2023-05-07T23:08:37;225.67;;;82.07;;
9900;SDS011;4989;48.772;9.154;2023-05-07T23:13:39;188.63;;;57.30;;
9900;SDS011;4989;48.772;9.154;2023-05-07T23:18:41;201.13;;;62.07;;
9900;SDS011;4989;48.772;9.154;2023-05-07T23:23:44;149.97;;;56.47;;
9900;SDS011;4989;48.772;9.154;2023-05-07T23:28:48;128.00;;;62.87;;
9900;SDS011;4989;48.772;9.154;2023-05-07T23:33:50;164.07;;;102.07;;
9900;SDS011;4989;48.772;9.154;2023-05-07T23:38:52;169.97;;;126.67;;
9900;SDS011;4989;48.772;9.154;2023-05-07T23:43:54;187.97;;;137.70;;
9900;SDS011;4989;48.772;9.154;2023-05-07T23:48:56;186.40;;;134.83;;
9900;SDS011;4989;48.772;9.154;2023-05-07T23:53:59;204.00;;;136.67;;
9900;SDS011;4989;48.772;9.154;2023-05-07T23:59:01;188.37;;;142.77;;
